createdAt,value
2023-03-26T00:02:06.909Z,5.79
2023-03-26T00:07:15.545Z,5.78
2023-03-26T00:12:22.133Z,5.81
2023-03-26T00:17:28.829Z,5.75
2023-03-26T00:22:36.915Z,5.76
2023-03-26T00:27:45.829Z,5.75
2023-03-26T00:32:53.383Z,5.73
2023-03-26T00:38:01.851Z,5.74
2023-03-26T00:43:18.964Z,5.69
2023-03-26T00:48:37.897Z,5.69
2023-03-26T00:53:52.933Z,5.63
2023-03-26T00:59:00.509Z,5.57
2023-03-26T01:04:31.507Z,5.57
2023-03-26T01:09:46.051Z,5.53
2023-03-26T01:14:54.841Z,5.51
2023-03-26T01:20:13.853Z,5.48
2023-03-26T01:25:34.167Z,5.48
2023-03-26T01:30:45.479Z,5.49
2023-03-26T01:36:00.444Z,5.51
2023-03-26T01:41:16.023Z,5.50
2023-03-26T01:46:26.023Z,5.53
2023-03-26T01:51:36.436Z,5.50
2023-03-26T01:56:57.355Z,5.53
2023-03-26T02:02:13.874Z,5.56
2023-03-26T02:07:28.999Z,5.56
2023-03-26T02:12:38.156Z,5.57
2023-03-26T02:17:44.066Z,5.59
2023-03-26T02:22:50.441Z,5.66
2023-03-26T02:28:00.043Z,5.72
2023-03-26T02:33:06.778Z,5.74
2023-03-26T02:38:21.816Z,5.80
2023-03-26T02:43:29.942Z,5.84
2023-03-26T02:48:36.627Z,5.91
2023-03-26T02:53:51.640Z,6.02
2023-03-26T02:59:20.038Z,6.07
2023-03-26T03:04:36.426Z,6.11
2023-03-26T03:09:43.282Z,6.12
2023-03-26T03:15:15.122Z,6.09
2023-03-26T03:20:22.390Z,6.06
2023-03-26T03:25:28.800Z,6.06
2023-03-26T03:30:36.832Z,6.05
2023-03-26T03:35:59.740Z,6.13
2023-03-26T03:41:08.335Z,6.17
2023-03-26T03:46:20.631Z,6.22
2023-03-26T03:51:28.560Z,6.26
2023-03-26T03:56:40.416Z,6.29
2023-03-26T04:02:11.232Z,6.31
2023-03-26T04:07:24.658Z,6.37
2023-03-26T04:12:46.382Z,6.39
2023-03-26T04:17:57.682Z,6.40
2023-03-26T04:23:05.057Z,6.43
2023-03-26T04:28:20.049Z,6.45
2023-03-26T04:33:48.816Z,6.49
2023-03-26T04:39:02.763Z,6.50
2023-03-26T04:44:30.619Z,6.54
2023-03-26T04:49:50.071Z,6.56
2023-03-26T04:54:57.720Z,6.58
2023-03-26T05:00:15.329Z,6.57
2023-03-26T05:05:26.289Z,6.57
2023-03-26T05:10:33.373Z,6.58
2023-03-26T05:15:43.672Z,6.59
2023-03-26T05:21:13.571Z,6.64
2023-03-26T05:26:20.722Z,6.67
2023-03-26T05:31:31.066Z,6.72
2023-03-26T05:36:40.050Z,6.78
2023-03-26T05:42:19.789Z,6.82
2023-03-26T05:48:01.249Z,6.86
2023-03-26T05:53:09.342Z,6.90
2023-03-26T05:58:38.902Z,6.90
2023-03-26T06:04:21.280Z,6.93
2023-03-26T06:09:52.746Z,6.97
2023-03-26T06:14:59.970Z,6.99
2023-03-26T06:20:20.268Z,7.01
2023-03-26T06:25:30.190Z,7.02
2023-03-26T06:30:52.953Z,7.07
2023-03-26T06:36:14.073Z,7.12
2023-03-26T06:41:21.992Z,7.17
2023-03-26T06:46:57.610Z,7.20
2023-03-26T06:52:22.749Z,7.27
2023-03-26T06:57:45.287Z,7.31
2023-03-26T07:03:17.661Z,7.33
2023-03-26T07:08:43.199Z,7.37
2023-03-26T07:14:05.932Z,7.43
2023-03-26T07:19:35.112Z,7.50
2023-03-26T07:24:42.703Z,7.57
2023-03-26T07:30:14.845Z,7.69
2023-03-26T07:35:30.120Z,7.76
2023-03-26T07:41:06.071Z,7.77
2023-03-26T07:46:37.256Z,7.76
2023-03-26T07:52:12.193Z,7.78
2023-03-26T07:57:46.950Z,7.81
2023-03-26T08:03:47.907Z,7.85
2023-03-26T08:09:36.662Z,7.84
2023-03-26T08:15:12.683Z,7.94
2023-03-26T08:20:34.610Z,8.01
2023-03-26T08:25:57.910Z,8.05
2023-03-26T08:31:05.775Z,8.09
2023-03-26T08:36:14.620Z,8.15
2023-03-26T08:42:11.336Z,8.25
2023-03-26T08:48:19.664Z,8.25
2023-03-26T08:54:03.676Z,8.35
2023-03-26T08:59:57.796Z,8.42
2023-03-26T09:05:47.737Z,8.32
2023-03-26T09:11:30.306Z,8.23
2023-03-26T09:17:19.515Z,8.29
2023-03-26T09:23:05.282Z,8.40
2023-03-26T09:29:08.585Z,8.63
2023-03-26T09:34:30.883Z,8.74
2023-03-26T09:39:44.493Z,8.68
2023-03-26T09:45:52.698Z,8.80
2023-03-26T09:51:14.704Z,9.04
2023-03-26T09:56:39.580Z,9.06
2023-03-26T10:02:04.802Z,9.07
2023-03-26T10:07:31.783Z,9.11
2023-03-26T10:12:41.552Z,9.02
2023-03-26T10:18:03.375Z,8.99
2023-03-26T10:23:50.156Z,9.03
2023-03-26T10:29:22.549Z,9.23
2023-03-26T10:34:53.004Z,9.33
2023-03-26T10:40:25.367Z,9.36
2023-03-26T10:45:50.014Z,9.37
2023-03-26T10:51:15.870Z,9.25
2023-03-26T10:56:29.184Z,9.21
2023-03-26T11:01:45.602Z,9.28
2023-03-26T11:07:05.524Z,9.32
2023-03-26T11:12:27.553Z,9.28
2023-03-26T11:17:48.781Z,9.10
2023-03-26T11:23:22.468Z,8.83
2023-03-26T11:29:03.885Z,8.78
2023-03-26T11:34:34.628Z,8.98
2023-03-26T11:39:52.409Z,9.15
2023-03-26T11:45:04.032Z,9.23
2023-03-26T11:50:22.583Z,9.26
2023-03-26T11:55:34.023Z,9.36
2023-03-26T12:00:42.727Z,9.44
2023-03-26T12:05:53.898Z,9.58
2023-03-26T12:11:11.139Z,9.68
2023-03-26T12:16:21.674Z,9.69
2023-03-26T12:21:30.490Z,9.57
2023-03-26T12:26:45.193Z,9.49
2023-03-26T12:31:58.157Z,9.54
2023-03-26T12:37:07.432Z,9.61
2023-03-26T12:44:46.870Z,9.62
2023-03-26T12:48:04.548Z,9.66
2023-03-26T12:53:40.128Z,9.58
2023-03-26T12:59:08.516Z,9.58
2023-03-26T13:05:05.122Z,9.59
2023-03-26T13:10:42.607Z,9.64
2023-03-26T13:15:54.016Z,9.72
2023-03-26T13:21:12.476Z,9.74
2023-03-26T13:26:48.214Z,9.76
2023-03-26T13:32:07.536Z,9.82
2023-03-26T13:37:24.464Z,9.82
2023-03-26T13:42:48.830Z,9.88
2023-03-26T13:48:01.358Z,9.88
2023-03-26T13:53:16.482Z,9.90
2023-03-26T13:58:36.805Z,9.92
2023-03-26T14:03:55.985Z,9.98
2023-03-26T14:09:09.658Z,9.97
2023-03-26T14:14:21.254Z,9.95
2023-03-26T14:20:12.196Z,10.01
2023-03-26T14:25:40.505Z,9.99
2023-03-26T14:31:19.832Z,9.90
2023-03-26T14:37:00.763Z,9.83
2023-03-26T14:42:20.503Z,9.89
2023-03-26T14:47:31.081Z,9.96
2023-03-26T14:52:50.429Z,10.02
2023-03-26T14:58:23.329Z,10.02
2023-03-26T15:04:38.926Z,10.00
2023-03-26T15:11:03.206Z,9.93
2023-03-26T15:17:01.914Z,9.91
2023-03-26T15:23:08.544Z,9.88
2023-03-26T15:29:17.771Z,9.87
2023-03-26T15:35:25.455Z,9.84
2023-03-26T15:40:50.154Z,9.73
2023-03-26T15:46:30.472Z,9.62
2023-03-26T15:51:53.360Z,9.51
2023-03-26T15:57:21.244Z,9.57
2023-03-26T16:02:42.873Z,9.49
2023-03-26T16:08:08.059Z,9.44
2023-03-26T16:13:33.262Z,9.36
2023-03-26T16:18:44.591Z,9.42
2023-03-26T16:23:58.465Z,9.35
2023-03-26T16:29:26.740Z,9.40
2023-03-26T16:34:53.548Z,9.46
2023-03-26T16:40:51.064Z,9.29
2023-03-26T16:46:09.482Z,9.16
2023-03-26T16:51:34.162Z,9.05
2023-03-26T16:56:51.312Z,8.87
2023-03-26T17:02:11.207Z,8.76
2023-03-26T17:07:32.102Z,8.60
2023-03-26T17:12:49.022Z,8.48
2023-03-26T17:18:29.082Z,8.36
2023-03-26T17:24:06.247Z,8.28
2023-03-26T17:29:54.984Z,8.21
2023-03-26T17:35:08.439Z,8.09
2023-03-26T17:40:55.511Z,7.95
2023-03-26T17:46:30.726Z,7.86
2023-03-26T17:51:55.575Z,7.74
2023-03-26T17:57:14.616Z,7.65
2023-03-26T18:02:35.642Z,7.56
2023-03-26T18:08:14.463Z,7.51
2023-03-26T18:14:11.663Z,7.44
2023-03-26T18:19:23.898Z,7.37
2023-03-26T18:24:38.972Z,7.25
2023-03-26T18:30:03.531Z,7.26
2023-03-26T18:35:26.960Z,7.14
2023-03-26T18:40:44.593Z,7.15
2023-03-26T18:45:59.558Z,7.09
2023-03-26T18:51:11.322Z,7.08
2023-03-26T18:56:34.560Z,7.13
2023-03-26T19:01:47.397Z,7.11
2023-03-26T19:06:58.196Z,7.09
2023-03-26T19:12:11.364Z,7.00
2023-03-26T19:17:23.099Z,6.98
2023-03-26T19:22:34.630Z,6.91
2023-03-26T19:27:44.857Z,6.85
2023-03-26T19:33:12.690Z,6.74
2023-03-26T19:38:33.504Z,6.63
2023-03-26T19:43:42.880Z,6.50
2023-03-26T19:48:58.098Z,6.42
2023-03-26T19:54:16.984Z,6.36
2023-03-26T19:59:28.241Z,6.27
2023-03-26T20:04:43.832Z,6.18
2023-03-26T20:09:54.645Z,6.07
2023-03-26T20:15:04.924Z,6.02
2023-03-26T20:20:18.041Z,5.92
2023-03-26T20:25:31.415Z,5.79
2023-03-26T20:30:41.677Z,5.70
2023-03-26T20:35:55.634Z,5.62
2023-03-26T20:41:04.880Z,5.57
2023-03-26T20:46:19.146Z,5.47
2023-03-26T20:51:31.957Z,5.34
2023-03-26T20:56:42.194Z,5.22
2023-03-26T21:01:50.405Z,5.19
2023-03-26T21:07:07.063Z,5.11
2023-03-26T21:12:31.711Z,5.00
2023-03-26T21:17:39.931Z,4.90
2023-03-26T21:22:58.640Z,4.88
2023-03-26T21:28:39.759Z,4.84
2023-03-26T21:33:51.180Z,4.76
2023-03-26T21:39:01.768Z,4.76
2023-03-26T21:44:08.931Z,4.72
2023-03-26T21:49:18.330Z,4.73
2023-03-26T21:54:29.260Z,4.72
2023-03-26T21:59:45.099Z,4.75
2023-03-26T22:04:56.535Z,4.66
2023-03-26T22:10:05.456Z,4.63
2023-03-26T22:15:14.504Z,4.42
2023-03-26T22:20:24.993Z,4.29
2023-03-26T22:25:33.353Z,4.36
2023-03-26T22:30:40.322Z,4.38
2023-03-26T22:35:47.377Z,4.37
2023-03-26T22:40:59.317Z,4.33
2023-03-26T22:46:08.248Z,4.29
2023-03-26T22:51:15.101Z,4.20
2023-03-26T22:56:23.611Z,4.13
2023-03-26T23:01:31.148Z,4.04
2023-03-26T23:06:38.209Z,3.97
2023-03-26T23:11:46.120Z,3.88
2023-03-26T23:16:52.619Z,3.86
2023-03-26T23:21:59.274Z,3.75
2023-03-26T23:27:07.326Z,3.42
2023-03-26T23:32:23.515Z,3.39
2023-03-26T23:37:35.399Z,3.31
2023-03-26T23:42:43.454Z,3.30
2023-03-26T23:47:50.065Z,3.31
2023-03-26T23:52:58.327Z,3.32
2023-03-26T23:58:07.080Z,3.35
